PWSweather.com
Personal Weather Stations
Station Observations
OTRONICS
WarminsterGB BA12 9JR

WarminsterGB BA12 9JR

Lat: 51.202078, Lon: -2.174497

Elevation: 413.5

Station Type: La Crosse WS2350

http://weather.otronics.co.uk

Latest ConditionsUpdated 9:20:01 PM GMT Thursday, Sep 21, 2017
Currently Today's Max Today's Min Today's Average
Temperature 55.2°F12.9°C 65.5°F18.6°C 55.2°F12.9°C 58.5°F14.7°C
Dew Point 48.8°F9.3°C 60.5°F15.8°C 48.8°F9.3°C 54.2°F12.3°C
Winds Calm Calm 2.3 mph NE3.7 kmh NE - 0.3 mph 0.5 kmh
Wind Gusts -- 6.9 mph11.1 kmh - -
Humidity 79% 90% 77% 86%
Pressure 30.18 in1022.0 mb 30.18 in1022.0 mb 30.00 in1015.9 mb -
Hour Temp Dew Point Humidity Winds Wind Gusts Pressure Precip Precip Rate Daily Precip Total
09:20 PM 55.2°F12.9°C 48.8°F9.3°C 79% Calm Calm -- 30.18 in1022.0 mb - 0.00 in0.0 mm 0.00 in0.0 mm
09:10 PM 55.2°F12.9°C 48.8°F9.3°C 79% Calm Calm -- 30.17 in1021.7 mb - 0.00 in0.0 mm 0.00 in0.0 mm
09:00 PM 55.4°F13.0°C 49.0°F9.4°C 79% Calm Calm -- 30.17 in1021.7 mb - 0.00 in0.0 mm 0.00 in0.0 mm
08:50 PM 55.6°F13.1°C 49.2°F9.6°C 79% Calm Calm -- 30.17 in1021.7 mb - 0.00 in0.0 mm 0.00 in0.0 mm
08:40 PM 55.6°F13.1°C 48.8°F9.3°C 78% Calm Calm -- 30.17 in1021.7 mb - 0.00 in0.0 mm 0.00 in0.0 mm
08:30 PM 55.8°F13.2°C 49.0°F9.4°C 78% Calm Calm -- 30.17 in1021.7 mb - 0.00 in0.0 mm 0.00 in0.0 mm
08:20 PM 55.9°F13.3°C 49.2°F9.6°C 78% Calm Calm -- 30.17 in1021.7 mb - 0.00 in0.0 mm 0.00 in0.0 mm
08:10 PM 55.9°F13.3°C 49.2°F9.6°C 78% Calm Calm -- 30.17 in1021.7 mb - 0.00 in0.0 mm 0.00 in0.0 mm
08:00 PM 56.1°F13.4°C 49.4°F9.7°C 78% Calm Calm -- 30.16 in1021.3 mb - 0.00 in0.0 mm 0.00 in0.0 mm
07:50 PM 56.3°F13.5°C 49.5°F9.7°C 78% Calm Calm -- 30.16 in1021.3 mb - 0.00 in0.0 mm 0.00 in0.0 mm
07:40 PM 56.5°F13.6°C 49.7°F9.8°C 78% Calm Calm -- 30.16 in1021.3 mb - 0.00 in0.0 mm 0.00 in0.0 mm
07:30 PM 56.5°F13.6°C 49.7°F9.8°C 78% Calm Calm -- 30.16 in1021.3 mb - 0.00 in0.0 mm 0.00 in0.0 mm
07:20 PM 56.8°F13.8°C 50.4°F10.2°C 79% Calm Calm -- 30.16 in1021.3 mb - 0.00 in0.0 mm 0.00 in0.0 mm
07:10 PM 56.8°F13.8°C 50.4°F10.2°C 79% Calm Calm -- 30.15 in1021.0 mb - 0.00 in0.0 mm 0.00 in0.0 mm
07:00 PM 57.0°F13.9°C 50.6°F10.3°C 79% Calm Calm -- 30.15 in1021.0 mb - 0.00 in0.0 mm 0.00 in0.0 mm
06:50 PM 57.0°F13.9°C 50.6°F10.3°C 79% Calm Calm -- 30.15 in1021.0 mb - 0.00 in0.0 mm 0.00 in0.0 mm
06:40 PM 57.4°F14.1°C 50.9°F10.5°C 79% Calm Calm -- 30.14 in1020.7 mb - 0.00 in0.0 mm 0.00 in0.0 mm
06:30 PM 57.4°F14.1°C 50.9°F10.5°C 79% Calm Calm -- 30.14 in1020.7 mb - 0.00 in0.0 mm 0.00 in0.0 mm
06:20 PM 57.6°F14.2°C 51.1°F10.6°C 79% Calm Calm -- 30.14 in1020.7 mb - 0.00 in0.0 mm 0.00 in0.0 mm
06:10 PM 57.7°F14.3°C 51.3°F10.7°C 79% Calm Calm -- 30.13 in1020.3 mb - 0.00 in0.0 mm 0.00 in0.0 mm
06:00 PM 57.9°F14.4°C 51.4°F10.8°C 79% Calm Calm -- 30.13 in1020.3 mb - 0.00 in0.0 mm 0.00 in0.0 mm
05:50 PM 58.3°F14.6°C 51.8°F11.0°C 79% Calm Calm -- 30.12 in1020.0 mb - 0.00 in0.0 mm 0.00 in0.0 mm
05:40 PM 58.3°F14.6°C 51.4°F10.8°C 78% Calm Calm -- 30.12 in1020.0 mb - 0.00 in0.0 mm 0.00 in0.0 mm
05:30 PM 58.6°F14.8°C 51.8°F11.0°C 78% Calm Calm -- 30.11 in1019.6 mb - 0.00 in0.0 mm 0.00 in0.0 mm
05:20 PM 58.8°F14.9°C 52.0°F11.1°C 78% Calm Calm -- 30.11 in1019.6 mb - 0.00 in0.0 mm 0.00 in0.0 mm
05:10 PM 59.4°F15.2°C 52.5°F11.4°C 78% Calm Calm 1.1 mph1.8 kmh 30.11 in1019.6 mb - 0.00 in0.0 mm 0.00 in0.0 mm
05:00 PM 59.7°F15.4°C 52.8°F11.6°C 78% Calm Calm 3.5 mph5.6 kmh 30.11 in1019.6 mb - 0.00 in0.0 mm 0.00 in0.0 mm
04:50 PM 60.4°F15.8°C 53.5°F11.9°C 78% Calm Calm -- 30.10 in1019.3 mb - 0.00 in0.0 mm 0.00 in0.0 mm
04:40 PM 60.6°F15.9°C 53.7°F12.1°C 78% Calm Calm -- 30.10 in1019.3 mb - 0.00 in0.0 mm 0.00 in0.0 mm
04:30 PM 61.0°F16.1°C 53.7°F12.1°C 77% Calm Calm -- 30.09 in1019.0 mb - 0.00 in0.0 mm 0.00 in0.0 mm
04:20 PM 61.3°F16.3°C 54.1°F12.3°C 77% Calm Calm -- 30.09 in1019.0 mb - 0.00 in0.0 mm 0.00 in0.0 mm
04:10 PM 61.5°F16.4°C 54.2°F12.3°C 77% Calm Calm -- 30.08 in1018.6 mb - 0.00 in0.0 mm 0.00 in0.0 mm
04:00 PM 62.1°F16.7°C 54.8°F12.7°C 77% Calm Calm -- 30.08 in1018.6 mb - 0.00 in0.0 mm 0.00 in0.0 mm
03:50 PM 62.4°F16.9°C 55.5°F13.1°C 78% Calm Calm -- 30.07 in1018.3 mb - 0.00 in0.0 mm 0.00 in0.0 mm
03:40 PM 63.0°F17.2°C 56.0°F13.3°C 78% 1.1 mph WNW1.8 kmh WNW 4.6 mph7.4 kmh 30.07 in1018.3 mb - 0.00 in0.0 mm 0.00 in0.0 mm
03:30 PM 63.6°F17.6°C 57.0°F13.9°C 79% Calm Calm -- 30.07 in1018.3 mb - 0.00 in0.0 mm 0.00 in0.0 mm
03:20 PM 64.4°F18.0°C 58.4°F14.7°C 81% Calm Calm 3.5 mph5.6 kmh 30.06 in1017.9 mb - 0.00 in0.0 mm 0.00 in0.0 mm
03:10 PM 65.0°F18.3°C 59.4°F15.2°C 82% Calm Calm -- 30.06 in1017.9 mb - 0.00 in0.0 mm 0.00 in0.0 mm
03:00 PM 65.5°F18.6°C 60.5°F15.8°C 84% Calm Calm -- 30.06 in1017.9 mb - 0.00 in0.0 mm 0.00 in0.0 mm
02:50 PM 64.0°F17.8°C 60.1°F15.6°C 87% Calm Calm -- 30.06 in1017.9 mb - 0.00 in0.0 mm 0.00 in0.0 mm
02:40 PM 61.0°F16.1°C 57.4°F14.1°C 88% Calm Calm -- 30.06 in1017.9 mb - 0.00 in0.0 mm 0.00 in0.0 mm
02:30 PM 60.1°F15.6°C 56.2°F13.4°C 87% Calm Calm -- 30.05 in1017.6 mb - 0.00 in0.0 mm 0.00 in0.0 mm
02:20 PM 60.2°F15.7°C 56.3°F13.5°C 87% Calm Calm -- 30.05 in1017.6 mb - 0.00 in0.0 mm 0.00 in0.0 mm
02:10 PM 60.4°F15.8°C 56.9°F13.8°C 88% Calm Calm -- 30.04 in1017.3 mb - 0.00 in0.0 mm 0.00 in0.0 mm
02:00 PM 60.6°F15.9°C 57.0°F13.9°C 88% Calm Calm -- 30.04 in1017.3 mb - 0.00 in0.0 mm 0.00 in0.0 mm
01:50 PM 60.6°F15.9°C 57.4°F14.1°C 89% Calm Calm -- 30.04 in1017.3 mb - 0.00 in0.0 mm 0.00 in0.0 mm
01:40 PM 60.6°F15.9°C 57.4°F14.1°C 89% Calm Calm -- 30.04 in1017.3 mb - 0.00 in0.0 mm 0.00 in0.0 mm
01:30 PM 60.6°F15.9°C 57.4°F14.1°C 89% Calm Calm -- 30.03 in1016.9 mb - 0.00 in0.0 mm 0.00 in0.0 mm
01:20 PM 60.6°F15.9°C 57.4°F14.1°C 89% Calm Calm -- 30.03 in1016.9 mb - 0.00 in0.0 mm 0.00 in0.0 mm
01:10 PM 60.4°F15.8°C 57.5°F14.2°C 90% Calm Calm -- 30.02 in1016.6 mb - 0.00 in0.0 mm 0.00 in0.0 mm
01:00 PM 60.3°F15.7°C 57.3°F14.1°C 90% Calm Calm -- 30.02 in1016.6 mb - 0.00 in0.0 mm 0.00 in0.0 mm
12:50 PM 59.9°F15.5°C 57.0°F13.9°C 90% Calm Calm -- 30.02 in1016.6 mb - 0.00 in0.0 mm 0.00 in0.0 mm
12:40 PM 59.9°F15.5°C 57.0°F13.9°C 90% Calm Calm -- 30.02 in1016.6 mb - 0.00 in0.0 mm 0.00 in0.0 mm
12:30 PM 59.8°F15.4°C 56.8°F13.8°C 90% Calm Calm -- 30.02 in1016.6 mb - 0.00 in0.0 mm 0.00 in0.0 mm
12:20 PM 60.1°F15.6°C 57.1°F13.9°C 90% Calm Calm -- 30.02 in1016.6 mb - 0.00 in0.0 mm 0.00 in0.0 mm
12:10 PM 60.1°F15.6°C 57.1°F13.9°C 90% Calm Calm -- 30.02 in1016.6 mb - 0.00 in0.0 mm 0.00 in0.0 mm
12:00 PM 59.9°F15.5°C 57.0°F13.9°C 90% 1.1 mph ESE1.8 kmh ESE 1.1 mph1.8 kmh 30.00 in1015.9 mb - 0.00 in0.0 mm 0.00 in0.0 mm
11:50 AM 59.7°F15.4°C 56.8°F13.8°C 90% 1.1 mph ESE1.8 kmh ESE 3.5 mph5.6 kmh 30.00 in1015.9 mb - 0.00 in0.0 mm 0.00 in0.0 mm
11:40 AM 59.5°F15.3°C 56.6°F13.7°C 90% Calm Calm 1.1 mph1.8 kmh 30.00 in1015.9 mb - 0.00 in0.0 mm 0.00 in0.0 mm
11:30 AM 59.4°F15.2°C 56.4°F13.6°C 90% 1.1 mph NNW1.8 kmh NNW 5.8 mph9.3 kmh 30.00 in1015.9 mb - 0.00 in0.0 mm 0.00 in0.0 mm
11:20 AM 59.3°F15.2°C 56.4°F13.6°C 90% 1.1 mph NE1.8 kmh NE 2.3 mph3.7 kmh 30.00 in1015.9 mb - 0.00 in0.0 mm 0.00 in0.0 mm
11:10 AM 59.4°F15.2°C 56.4°F13.6°C 90% 1.1 mph S1.8 kmh S 2.3 mph3.7 kmh 30.00 in1015.9 mb - 0.00 in0.0 mm 0.00 in0.0 mm
11:00 AM 59.2°F15.1°C 56.2°F13.4°C 90% 1.1 mph S1.8 kmh S 2.3 mph3.7 kmh 30.01 in1016.3 mb - 0.00 in0.0 mm 0.00 in0.0 mm
10:50 AM 58.8°F14.9°C 55.6°F13.1°C 89% 1.1 mph SSE1.8 kmh SSE 1.1 mph1.8 kmh 30.00 in1015.9 mb - 0.00 in0.0 mm 0.00 in0.0 mm
10:40 AM 58.8°F14.9°C 55.6°F13.1°C 89% 1.1 mph SSW1.8 kmh SSW 1.1 mph1.8 kmh 30.00 in1015.9 mb - 0.00 in0.0 mm 0.00 in0.0 mm
10:30 AM 58.8°F14.9°C 55.6°F13.1°C 89% Calm Calm 3.5 mph5.6 kmh 30.00 in1015.9 mb - 0.00 in0.0 mm 0.00 in0.0 mm
10:20 AM 58.8°F14.9°C 55.6°F13.1°C 89% Calm Calm -- 30.00 in1015.9 mb - 0.00 in0.0 mm 0.00 in0.0 mm
10:10 AM 58.6°F14.8°C 55.4°F13.0°C 89% Calm Calm -- 30.00 in1015.9 mb - 0.00 in0.0 mm 0.00 in0.0 mm
10:00 AM 58.7°F14.8°C 55.4°F13.0°C 89% Calm Calm -- 30.00 in1015.9 mb - 0.00 in0.0 mm 0.00 in0.0 mm
09:50 AM 58.8°F14.9°C 55.6°F13.1°C 89% 2.3 mph WNW3.7 kmh WNW 3.5 mph5.6 kmh 30.00 in1015.9 mb - 0.00 in0.0 mm 0.00 in0.0 mm
09:40 AM 58.8°F14.9°C 55.6°F13.1°C 89% 1.1 mph WNW1.8 kmh WNW 3.5 mph5.6 kmh 30.00 in1015.9 mb - 0.00 in0.0 mm 0.00 in0.0 mm
09:30 AM 58.8°F14.9°C 55.6°F13.1°C 89% 1.1 mph W1.8 kmh W 2.3 mph3.7 kmh 30.00 in1015.9 mb - 0.00 in0.0 mm 0.00 in0.0 mm
09:20 AM 58.8°F14.9°C 55.6°F13.1°C 89% Calm Calm 1.1 mph1.8 kmh 30.00 in1015.9 mb - 0.00 in0.0 mm 0.00 in0.0 mm
09:10 AM 58.8°F14.9°C 55.6°F13.1°C 89% Calm Calm 2.3 mph3.7 kmh 30.01 in1016.3 mb - 0.00 in0.0 mm 0.00 in0.0 mm
09:00 AM 58.6°F14.8°C 55.4°F13.0°C 89% 1.1 mph WNW1.8 kmh WNW 2.3 mph3.7 kmh 30.01 in1016.3 mb - 0.00 in0.0 mm 0.00 in0.0 mm
08:50 AM 58.6°F14.8°C 55.4°F13.0°C 89% Calm Calm -- 30.01 in1016.3 mb - 0.00 in0.0 mm 0.00 in0.0 mm
08:40 AM 58.6°F14.8°C 55.4°F13.0°C 89% 1.1 mph WSW1.8 kmh WSW 3.5 mph5.6 kmh 30.01 in1016.3 mb - 0.00 in0.0 mm 0.00 in0.0 mm
08:30 AM 58.3°F14.6°C 55.1°F12.8°C 89% 1.1 mph SW1.8 kmh SW 1.1 mph1.8 kmh 30.01 in1016.3 mb - 0.00 in0.0 mm 0.00 in0.0 mm
08:20 AM 58.1°F14.5°C 54.9°F12.7°C 89% 2.3 mph SSE3.7 kmh SSE 3.5 mph5.6 kmh 30.01 in1016.3 mb - 0.00 in0.0 mm 0.00 in0.0 mm
08:10 AM 57.9°F14.4°C 54.7°F12.6°C 89% 1.1 mph ENE1.8 kmh ENE 2.3 mph3.7 kmh 30.01 in1016.3 mb - 0.00 in0.0 mm 0.00 in0.0 mm
08:00 AM 57.9°F14.4°C 54.7°F12.6°C 89% 1.1 mph WNW1.8 kmh WNW 1.1 mph1.8 kmh 30.00 in1015.9 mb - 0.00 in0.0 mm 0.00 in0.0 mm
07:50 AM 57.7°F14.3°C 54.5°F12.5°C 89% Calm Calm 2.3 mph3.7 kmh 30.00 in1015.9 mb - 0.00 in0.0 mm 0.00 in0.0 mm
07:40 AM 57.6°F14.2°C 54.3°F12.4°C 89% Calm Calm 6.9 mph11.1 kmh 30.00 in1015.9 mb - 0.00 in0.0 mm 0.00 in0.0 mm
07:30 AM 57.6°F14.2°C 54.3°F12.4°C 89% 2.3 mph W3.7 kmh W 1.1 mph1.8 kmh 30.01 in1016.3 mb - 0.00 in0.0 mm 0.00 in0.0 mm
07:20 AM 57.6°F14.2°C 54.3°F12.4°C 89% Calm Calm 1.1 mph1.8 kmh 30.01 in1016.3 mb - 0.00 in0.0 mm 0.00 in0.0 mm
07:10 AM 57.4°F14.1°C 54.2°F12.3°C 89% Calm Calm 1.1 mph1.8 kmh 30.01 in1016.3 mb - 0.00 in0.0 mm 0.00 in0.0 mm
07:00 AM 57.4°F14.1°C 54.2°F12.3°C 89% 1.1 mph NNW1.8 kmh NNW 3.5 mph5.6 kmh 30.01 in1016.3 mb - 0.00 in0.0 mm 0.00 in0.0 mm
06:50 AM 57.4°F14.1°C 54.2°F12.3°C 89% 1.1 mph NW1.8 kmh NW 2.3 mph3.7 kmh 30.01 in1016.3 mb - 0.00 in0.0 mm 0.00 in0.0 mm
06:40 AM 57.4°F14.1°C 54.2°F12.3°C 89% 1.1 mph E1.8 kmh E 3.5 mph5.6 kmh 30.01 in1016.3 mb - 0.00 in0.0 mm 0.00 in0.0 mm
06:30 AM 57.4°F14.1°C 54.2°F12.3°C 89% Calm Calm 2.3 mph3.7 kmh 30.00 in1015.9 mb - 0.00 in0.0 mm 0.00 in0.0 mm
06:20 AM 57.4°F14.1°C 54.2°F12.3°C 89% 1.1 mph S1.8 kmh S 2.3 mph3.7 kmh 30.00 in1015.9 mb - 0.00 in0.0 mm 0.00 in0.0 mm
06:10 AM 57.4°F14.1°C 54.2°F12.3°C 89% Calm Calm 2.3 mph3.7 kmh 30.00 in1015.9 mb - 0.00 in0.0 mm 0.00 in0.0 mm
06:00 AM 57.4°F14.1°C 54.2°F12.3°C 89% 1.1 mph NNW1.8 kmh NNW 2.3 mph3.7 kmh 30.00 in1015.9 mb - 0.00 in0.0 mm 0.00 in0.0 mm
05:50 AM 57.4°F14.1°C 54.2°F12.3°C 89% 1.1 mph SW1.8 kmh SW 2.3 mph3.7 kmh 30.00 in1015.9 mb - 0.00 in0.0 mm 0.00 in0.0 mm
05:40 AM 57.4°F14.1°C 54.2°F12.3°C 89% 1.1 mph NNE1.8 kmh NNE 2.3 mph3.7 kmh 30.00 in1015.9 mb - 0.00 in0.0 mm 0.00 in0.0 mm
05:30 AM 57.4°F14.1°C 54.2°F12.3°C 89% Calm Calm 1.1 mph1.8 kmh 30.00 in1015.9 mb - 0.00 in0.0 mm 0.00 in0.0 mm
05:20 AM 57.4°F14.1°C 54.2°F12.3°C 89% Calm Calm 2.3 mph3.7 kmh 30.01 in1016.3 mb - 0.00 in0.0 mm 0.00 in0.0 mm
05:10 AM 57.4°F14.1°C 54.2°F12.3°C 89% Calm Calm 1.1 mph1.8 kmh 30.01 in1016.3 mb - 0.00 in0.0 mm 0.00 in0.0 mm
05:00 AM 57.4°F14.1°C 54.2°F12.3°C 89% Calm Calm -- 30.01 in1016.3 mb - 0.00 in0.0 mm 0.00 in0.0 mm
04:50 AM 57.4°F14.1°C 54.2°F12.3°C 89% Calm Calm -- 30.01 in1016.3 mb - 0.00 in0.0 mm 0.00 in0.0 mm
04:40 AM 57.4°F14.1°C 54.2°F12.3°C 89% Calm Calm -- 30.01 in1016.3 mb - 0.00 in0.0 mm 0.00 in0.0 mm
04:30 AM 57.4°F14.1°C 54.2°F12.3°C 89% Calm Calm -- 30.01 in1016.3 mb - 0.00 in0.0 mm 0.00 in0.0 mm
04:20 AM 57.4°F14.1°C 54.2°F12.3°C 89% Calm Calm 3.5 mph5.6 kmh 30.01 in1016.3 mb - 0.00 in0.0 mm 0.00 in0.0 mm
04:10 AM 57.4°F14.1°C 54.2°F12.3°C 89% Calm Calm 1.1 mph1.8 kmh 30.01 in1016.3 mb - 0.00 in0.0 mm 0.00 in0.0 mm
04:00 AM 57.4°F14.1°C 54.2°F12.3°C 89% Calm Calm 2.3 mph3.7 kmh 30.01 in1016.3 mb - 0.00 in0.0 mm 0.00 in0.0 mm
03:50 AM 57.1°F13.9°C 53.6°F12.0°C 88% Calm Calm 1.1 mph1.8 kmh 30.01 in1016.3 mb - 0.00 in0.0 mm 0.00 in0.0 mm
03:40 AM 57.0°F13.9°C 53.5°F11.9°C 88% Calm Calm -- 30.01 in1016.3 mb - 0.00 in0.0 mm 0.00 in0.0 mm
03:30 AM 57.0°F13.9°C 53.5°F11.9°C 88% Calm Calm -- 30.02 in1016.6 mb - 0.00 in0.0 mm 0.00 in0.0 mm
03:20 AM 57.2°F14.0°C 53.7°F12.1°C 88% 1.1 mph S1.8 kmh S 2.3 mph3.7 kmh 30.02 in1016.6 mb - 0.00 in0.0 mm 0.00 in0.0 mm
03:10 AM 57.2°F14.0°C 53.7°F12.1°C 88% Calm Calm 2.3 mph3.7 kmh 30.02 in1016.6 mb - 0.00 in0.0 mm 0.00 in0.0 mm
03:00 AM 57.2°F14.0°C 53.7°F12.1°C 88% Calm Calm 1.1 mph1.8 kmh 30.03 in1016.9 mb - 0.00 in0.0 mm 0.00 in0.0 mm
02:50 AM 57.4°F14.1°C 53.9°F12.2°C 88% 1.1 mph WNW1.8 kmh WNW 3.5 mph5.6 kmh 30.03 in1016.9 mb - 0.00 in0.0 mm 0.00 in0.0 mm
02:40 AM 57.4°F14.1°C 53.9°F12.2°C 88% Calm Calm 3.5 mph5.6 kmh 30.03 in1016.9 mb - 0.00 in0.0 mm 0.00 in0.0 mm
02:30 AM 57.4°F14.1°C 53.9°F12.2°C 88% Calm Calm 3.5 mph5.6 kmh 30.04 in1017.3 mb - 0.00 in0.0 mm 0.00 in0.0 mm
02:20 AM 57.4°F14.1°C 53.9°F12.2°C 88% 1.1 mph E1.8 kmh E 3.5 mph5.6 kmh 30.04 in1017.3 mb - 0.00 in0.0 mm 0.00 in0.0 mm
02:10 AM 57.4°F14.1°C 53.9°F12.2°C 88% 2.3 mph NE3.7 kmh NE 3.5 mph5.6 kmh 30.03 in1016.9 mb - 0.00 in0.0 mm 0.00 in0.0 mm
02:00 AM 57.4°F14.1°C 53.9°F12.2°C 88% Calm Calm 2.3 mph3.7 kmh 30.04 in1017.3 mb - 0.00 in0.0 mm 0.00 in0.0 mm
01:50 AM 57.4°F14.1°C 53.9°F12.2°C 88% 2.3 mph NE3.7 kmh NE 4.6 mph7.4 kmh 30.04 in1017.3 mb - 0.00 in0.0 mm 0.00 in0.0 mm
01:40 AM 57.6°F14.2°C 54.0°F12.2°C 88% Calm Calm 2.3 mph3.7 kmh 30.04 in1017.3 mb - 0.00 in0.0 mm 0.00 in0.0 mm
01:30 AM 57.6°F14.2°C 54.0°F12.2°C 88% Calm Calm -- 30.05 in1017.6 mb - 0.00 in0.0 mm 0.00 in0.0 mm
01:20 AM 57.6°F14.2°C 54.0°F12.2°C 88% Calm Calm 2.3 mph3.7 kmh 30.05 in1017.6 mb - 0.00 in0.0 mm 0.00 in0.0 mm
01:10 AM 57.7°F14.3°C 54.2°F12.3°C 88% Calm Calm -- 30.06 in1017.9 mb - 0.00 in0.0 mm 0.00 in0.0 mm
01:00 AM 57.6°F14.2°C 54.1°F12.3°C 88% Calm Calm 1.1 mph1.8 kmh 30.06 in1017.9 mb - 0.00 in0.0 mm 0.00 in0.0 mm
12:50 AM 57.6°F14.2°C 54.0°F12.2°C 88% 1.1 mph WNW1.8 kmh WNW 1.1 mph1.8 kmh 30.06 in1017.9 mb - 0.00 in0.0 mm 0.00 in0.0 mm
12:40 AM 57.6°F14.2°C 54.0°F12.2°C 88% Calm Calm -- 30.06 in1017.9 mb - 0.00 in0.0 mm 0.00 in0.0 mm
12:30 AM 57.6°F14.2°C 54.0°F12.2°C 88% 1.1 mph ESE1.8 kmh ESE 2.3 mph3.7 kmh 30.06 in1017.9 mb - 0.00 in0.0 mm 0.00 in0.0 mm
12:20 AM 57.7°F14.3°C 54.2°F12.3°C 88% 1.1 mph NW1.8 kmh NW 2.3 mph3.7 kmh 30.07 in1018.3 mb - 0.00 in0.0 mm 0.00 in0.0 mm
12:10 AM 57.7°F14.3°C 54.2°F12.3°C 88% Calm Calm 1.1 mph1.8 kmh 30.06 in1017.9 mb - 0.00 in0.0 mm 0.00 in0.0 mm
12:00 AM 57.6°F14.2°C 54.0°F12.2°C 88% Calm Calm -- 30.06 in1017.9 mb - 0.00 in0.0 mm 0.00 in0.0 mm